KBFI

King County International Airport

Airport
ICAO code
KBFI
Summary
ICAO Region
NAM
ICAO Territory
Location

Seattle, Washington,

Coordinates
47° 32' 12" N , 122° 18' 14" W
KCC
Airport LOS
Parallel Runway Operation
Metar
Observation
KBFI 070853Z 00000KT 10SM HZ CLR 14/12 A3015 RMK AO2 SLP207 T01390122 53007
Station
Seattle, Seattle Boeing Field
Date/Time
2022-10-07 08:53:00
Wind direction
Wind speed
00 kts
Lowest cloud amount
n/a
Temperature
13.9°C
Dew point
12.2°C
Humidity
89%
Weather condition
haze

Description

Boeing Field, officially King County International Airport, is a public airport located 8 km south of the central business district of Seattle, Washington.

Climatology

Dry-summer subtropical ”Mediterranean" climate (Köppen climate classification Csb) - characterized by warm, dry summers and mild winters.

Airport map

Aerial View

SKYbrary Partners:

Safety knowledge contributed by: